CYHZ/YHZ METAR and TAF weather

Enter ICAO airport designator
Station Type Date Time Source
CYHZ METAR 2021/09/20 05:00 UTC NOAA

CYHZ 200500Z 34011KT 15SM SKC 09/07 A3013 RMK SLP208


Station Type Date Time Source
CYHZ Decoded METAR 2021/09/20 05:00 UTC NOAA

Halifax International Airport , Canada (CYHZ) 44-53N 063-30W
Sep 20, 2021 - 01:00 AM EDT / 2021.09.20 0500 UTC
Wind: from the NNW (340 degrees) at 13 MPH (11 KT):0
Visibility: 15 mile(s):0
Sky conditions: clear
Temperature: 48 F (9 C)
Dew Point: 44 F (7 C)
Relative Humidity: 87%
Pressure (altimeter): 30.13 in. Hg (1020 hPa)
ob: CYHZ 200500Z 34011KT 15SM SKC 09/07 A3013 RMK SLP208
cycle: 5

Station Type Date Time Source
CYHZ TAF 2021/09/20 06:45 UTC NOAA

TAF CYHZ 200541Z 2006/2106 35010KT P6SM SKC
BECMG 2022/2024 VRB03KT
FM210500 20005KT P6SM SKC PROB30 2105/2106 11/2SM BR
RMK NXT FCST BY 200900Z

Example: see airport list